sensor_id;sensor_type;location;lat;lon;timestamp;P1;durP1;ratioP1;P2;durP2;ratioP2
14776;SDS011;7480;43.124;25.686;2022-09-13T00:00:56;2.63;;;1.70;;
14776;SDS011;7480;43.124;25.686;2022-09-13T00:03:23;2.17;;;1.80;;
14776;SDS011;7480;43.124;25.686;2022-09-13T00:05:49;1.70;;;1.60;;
14776;SDS011;7480;43.124;25.686;2022-09-13T00:08:16;1.60;;;1.50;;
14776;SDS011;7480;43.124;25.686;2022-09-13T00:10:43;2.30;;;1.70;;
14776;SDS011;7480;43.124;25.686;2022-09-13T00:13:10;1.83;;;1.50;;
14776;SDS011;7480;43.124;25.686;2022-09-13T00:15:41;2.97;;;1.50;;
14776;SDS011;7480;43.124;25.686;2022-09-13T00:18:07;2.07;;;1.53;;
14776;SDS011;7480;43.124;25.686;2022-09-13T00:20:34;2.03;;;1.43;;
14776;SDS011;7480;43.124;25.686;2022-09-13T00:23:02;2.10;;;1.70;;
14776;SDS011;7480;43.124;25.686;2022-09-13T00:25:29;4.03;;;1.90;;
14776;SDS011;7480;43.124;25.686;2022-09-13T00:27:55;6.40;;;1.90;;
14776;SDS011;7480;43.124;25.686;2022-09-13T00:30:22;2.03;;;1.80;;
14776;SDS011;7480;43.124;25.686;2022-09-13T00:32:48;1.70;;;1.60;;
14776;SDS011;7480;43.124;25.686;2022-09-13T00:35:15;2.07;;;1.90;;
14776;SDS011;7480;43.124;25.686;2022-09-13T00:37:41;1.77;;;1.67;;
14776;SDS011;7480;43.124;25.686;2022-09-13T00:40:09;6.93;;;1.90;;
14776;SDS011;7480;43.124;25.686;2022-09-13T00:42:35;2.37;;;1.90;;
14776;SDS011;7480;43.124;25.686;2022-09-13T00:47:33;2.00;;;1.43;;
14776;SDS011;7480;43.124;25.686;2022-09-13T00:50:05;2.03;;;1.83;;
14776;SDS011;7480;43.124;25.686;2022-09-13T00:52:32;1.87;;;1.60;;
14776;SDS011;7480;43.124;25.686;2022-09-13T00:55:06;1.93;;;1.67;;
14776;SDS011;7480;43.124;25.686;2022-09-13T00:57:33;1.67;;;1.57;;
14776;SDS011;7480;43.124;25.686;2022-09-13T01:00:02;2.80;;;1.87;;
14776;SDS011;7480;43.124;25.686;2022-09-13T01:02:37;2.20;;;1.70;;
14776;SDS011;7480;43.124;25.686;2022-09-13T01:05:03;2.97;;;1.60;;
14776;SDS011;7480;43.124;25.686;2022-09-13T01:07:30;3.10;;;1.70;;
14776;SDS011;7480;43.124;25.686;2022-09-13T01:09:57;1.97;;;1.73;;
14776;SDS011;7480;43.124;25.686;2022-09-13T01:15:30;2.67;;;1.67;;
14776;SDS011;7480;43.124;25.686;2022-09-13T01:17:56;3.33;;;1.80;;
14776;SDS011;7480;43.124;25.686;2022-09-13T01:20:24;2.20;;;1.60;;
14776;SDS011;7480;43.124;25.686;2022-09-13T01:27:54;2.27;;;1.77;;
14776;SDS011;7480;43.124;25.686;2022-09-13T01:30:23;2.33;;;1.70;;
14776;SDS011;7480;43.124;25.686;2022-09-13T01:38:09;1.73;;;1.57;;
14776;SDS011;7480;43.124;25.686;2022-09-13T01:45:44;6.77;;;1.77;;
14776;SDS011;7480;43.124;25.686;2022-09-13T01:48:17;2.80;;;1.60;;
14776;SDS011;7480;43.124;25.686;2022-09-13T01:50:58;4.47;;;1.90;;
14776;SDS011;7480;43.124;25.686;2022-09-13T01:56:19;2.13;;;1.93;;
14776;SDS011;7480;43.124;25.686;2022-09-13T01:58:51;1.87;;;1.50;;
14776;SDS011;7480;43.124;25.686;2022-09-13T02:04:08;2.07;;;1.83;;
14776;SDS011;7480;43.124;25.686;2022-09-13T02:06:37;1.20;;;1.10;;
14776;SDS011;7480;43.124;25.686;2022-09-13T02:09:10;2.30;;;1.90;;
14776;SDS011;7480;43.124;25.686;2022-09-13T02:11:38;1.97;;;1.70;;
14776;SDS011;7480;43.124;25.686;2022-09-13T02:14:14;1.77;;;1.57;;
14776;SDS011;7480;43.124;25.686;2022-09-13T02:16:43;2.77;;;2.10;;
14776;SDS011;7480;43.124;25.686;2022-09-13T02:19:16;2.87;;;1.80;;
14776;SDS011;7480;43.124;25.686;2022-09-13T02:21:46;2.43;;;1.90;;
14776;SDS011;7480;43.124;25.686;2022-09-13T02:24:21;1.97;;;1.70;;
14776;SDS011;7480;43.124;25.686;2022-09-13T02:26:48;2.73;;;1.90;;
14776;SDS011;7480;43.124;25.686;2022-09-13T02:29:17;3.73;;;2.23;;
14776;SDS011;7480;43.124;25.686;2022-09-13T02:31:50;1.60;;;1.50;;
14776;SDS011;7480;43.124;25.686;2022-09-13T02:34:19;2.90;;;1.87;;
14776;SDS011;7480;43.124;25.686;2022-09-13T02:36:46;2.20;;;1.90;;
14776;SDS011;7480;43.124;25.686;2022-09-13T02:39:14;1.80;;;1.70;;
14776;SDS011;7480;43.124;25.686;2022-09-13T02:41:51;1.93;;;1.43;;
14776;SDS011;7480;43.124;25.686;2022-09-13T02:54:55;2.27;;;1.90;;
14776;SDS011;7480;43.124;25.686;2022-09-13T02:57:30;2.63;;;1.90;;
14776;SDS011;7480;43.124;25.686;2022-09-13T02:59:59;4.40;;;1.80;;
14776;SDS011;7480;43.124;25.686;2022-09-13T03:02:26;2.17;;;1.77;;
14776;SDS011;7480;43.124;25.686;2022-09-13T03:04:54;5.37;;;2.20;;
14776;SDS011;7480;43.124;25.686;2022-09-13T03:07:21;2.50;;;2.00;;
14776;SDS011;7480;43.124;25.686;2022-09-13T03:10:11;1.70;;;1.60;;
14776;SDS011;7480;43.124;25.686;2022-09-13T03:15:05;2.40;;;2.13;;
14776;SDS011;7480;43.124;25.686;2022-09-13T03:17:40;3.57;;;1.90;;
14776;SDS011;7480;43.124;25.686;2022-09-13T03:27:34;1.93;;;1.73;;
14776;SDS011;7480;43.124;25.686;2022-09-13T03:30:10;2.30;;;2.10;;
14776;SDS011;7480;43.124;25.686;2022-09-13T03:40:47;3.70;;;1.80;;
14776;SDS011;7480;43.124;25.686;2022-09-13T03:46:03;2.67;;;1.97;;
14776;SDS011;7480;43.124;25.686;2022-09-13T03:48:31;2.20;;;1.83;;
14776;SDS011;7480;43.124;25.686;2022-09-13T03:51:01;2.00;;;1.87;;
14776;SDS011;7480;43.124;25.686;2022-09-13T03:53:28;2.30;;;1.83;;
14776;SDS011;7480;43.124;25.686;2022-09-13T03:55:56;2.43;;;2.13;;
14776;SDS011;7480;43.124;25.686;2022-09-13T03:58:24;3.13;;;2.27;;
14776;SDS011;7480;43.124;25.686;2022-09-13T04:00:50;3.20;;;2.30;;
14776;SDS011;7480;43.124;25.686;2022-09-13T04:03:20;4.40;;;2.63;;
14776;SDS011;7480;43.124;25.686;2022-09-13T04:05:46;9.53;;;2.90;;
14776;SDS011;7480;43.124;25.686;2022-09-13T04:08:13;5.93;;;3.07;;
14776;SDS011;7480;43.124;25.686;2022-09-13T04:10:39;6.57;;;2.60;;
14776;SDS011;7480;43.124;25.686;2022-09-13T04:13:05;8.83;;;3.23;;
14776;SDS011;7480;43.124;25.686;2022-09-13T04:15:32;4.17;;;2.43;;
14776;SDS011;7480;43.124;25.686;2022-09-13T04:17:58;3.57;;;2.57;;
14776;SDS011;7480;43.124;25.686;2022-09-13T04:20:25;2.33;;;2.13;;
14776;SDS011;7480;43.124;25.686;2022-09-13T04:22:52;3.07;;;2.20;;
14776;SDS011;7480;43.124;25.686;2022-09-13T04:25:19;3.33;;;2.47;;
14776;SDS011;7480;43.124;25.686;2022-09-13T04:27:45;3.83;;;1.80;;
14776;SDS011;7480;43.124;25.686;2022-09-13T04:30:12;6.77;;;2.70;;
14776;SDS011;7480;43.124;25.686;2022-09-13T04:32:40;1.83;;;1.40;;
14776;SDS011;7480;43.124;25.686;2022-09-13T04:35:07;1.77;;;1.50;;
14776;SDS011;7480;43.124;25.686;2022-09-13T04:37:34;3.63;;;1.77;;
14776;SDS011;7480;43.124;25.686;2022-09-13T04:40:01;2.20;;;2.00;;
14776;SDS011;7480;43.124;25.686;2022-09-13T04:42:27;2.47;;;1.87;;
14776;SDS011;7480;43.124;25.686;2022-09-13T04:44:54;2.43;;;1.90;;
14776;SDS011;7480;43.124;25.686;2022-09-13T04:47:20;2.90;;;2.17;;
14776;SDS011;7480;43.124;25.686;2022-09-13T04:49:47;4.47;;;1.90;;
14776;SDS011;7480;43.124;25.686;2022-09-13T04:52:14;1.73;;;1.60;;
14776;SDS011;7480;43.124;25.686;2022-09-13T04:54:40;1.97;;;1.57;;
14776;SDS011;7480;43.124;25.686;2022-09-13T04:57:07;3.60;;;2.10;;
14776;SDS011;7480;43.124;25.686;2022-09-13T04:59:33;1.70;;;1.40;;
14776;SDS011;7480;43.124;25.686;2022-09-13T05:02:00;3.03;;;1.70;;
14776;SDS011;7480;43.124;25.686;2022-09-13T05:04:26;2.50;;;1.97;;
14776;SDS011;7480;43.124;25.686;2022-09-13T05:06:53;1.97;;;1.70;;
14776;SDS011;7480;43.124;25.686;2022-09-13T05:09:19;2.30;;;1.90;;
14776;SDS011;7480;43.124;25.686;2022-09-13T05:11:46;3.07;;;1.93;;
14776;SDS011;7480;43.124;25.686;2022-09-13T05:14:12;6.20;;;1.90;;
14776;SDS011;7480;43.124;25.686;2022-09-13T05:16:38;3.73;;;1.70;;
14776;SDS011;7480;43.124;25.686;2022-09-13T05:19:05;2.37;;;1.50;;
14776;SDS011;7480;43.124;25.686;2022-09-13T05:21:32;2.43;;;1.87;;
14776;SDS011;7480;43.124;25.686;2022-09-13T05:23:58;2.73;;;1.57;;
14776;SDS011;7480;43.124;25.686;2022-09-13T05:26:25;1.60;;;1.50;;
14776;SDS011;7480;43.124;25.686;2022-09-13T05:28:53;2.70;;;1.70;;
14776;SDS011;7480;43.124;25.686;2022-09-13T05:31:20;2.10;;;1.90;;
14776;SDS011;7480;43.124;25.686;2022-09-13T05:33:51;3.60;;;1.80;;
14776;SDS011;7480;43.124;25.686;2022-09-13T05:36:17;1.77;;;1.40;;
14776;SDS011;7480;43.124;25.686;2022-09-13T05:38:44;2.30;;;1.50;;
14776;SDS011;7480;43.124;25.686;2022-09-13T05:41:11;5.63;;;1.93;;
14776;SDS011;7480;43.124;25.686;2022-09-13T05:43:37;2.83;;;1.57;;
14776;SDS011;7480;43.124;25.686;2022-09-13T05:46:05;1.80;;;1.33;;
14776;SDS011;7480;43.124;25.686;2022-09-13T05:48:33;2.83;;;1.50;;
14776;SDS011;7480;43.124;25.686;2022-09-13T05:51:04;1.50;;;1.40;;
14776;SDS011;7480;43.124;25.686;2022-09-13T05:53:31;1.97;;;1.60;;
14776;SDS011;7480;43.124;25.686;2022-09-13T05:55:58;2.67;;;1.70;;
14776;SDS011;7480;43.124;25.686;2022-09-13T05:58:25;1.87;;;1.63;;
14776;SDS011;7480;43.124;25.686;2022-09-13T06:00:55;1.80;;;1.60;;
14776;SDS011;7480;43.124;25.686;2022-09-13T06:03:22;2.20;;;1.73;;
14776;SDS011;7480;43.124;25.686;2022-09-13T06:05:49;2.40;;;1.73;;
14776;SDS011;7480;43.124;25.686;2022-09-13T06:08:15;1.43;;;1.33;;
14776;SDS011;7480;43.124;25.686;2022-09-13T06:10:42;3.37;;;1.47;;
14776;SDS011;7480;43.124;25.686;2022-09-13T06:13:08;2.77;;;1.80;;
14776;SDS011;7480;43.124;25.686;2022-09-13T06:15:34;2.23;;;1.53;;
14776;SDS011;7480;43.124;25.686;2022-09-13T06:18:07;1.50;;;1.30;;
14776;SDS011;7480;43.124;25.686;2022-09-13T06:20:34;1.70;;;1.60;;
14776;SDS011;7480;43.124;25.686;2022-09-13T06:23:00;3.77;;;1.60;;
14776;SDS011;7480;43.124;25.686;2022-09-13T06:25:27;1.93;;;1.73;;
14776;SDS011;7480;43.124;25.686;2022-09-13T06:27:53;2.77;;;2.00;;
14776;SDS011;7480;43.124;25.686;2022-09-13T06:30:20;1.93;;;1.73;;
14776;SDS011;7480;43.124;25.686;2022-09-13T06:32:46;3.73;;;2.00;;
14776;SDS011;7480;43.124;25.686;2022-09-13T06:35:13;2.30;;;1.90;;
14776;SDS011;7480;43.124;25.686;2022-09-13T06:37:39;1.77;;;1.67;;
14776;SDS011;7480;43.124;25.686;2022-09-13T06:40:06;2.07;;;1.63;;
14776;SDS011;7480;43.124;25.686;2022-09-13T06:42:33;4.27;;;2.20;;
14776;SDS011;7480;43.124;25.686;2022-09-13T06:45:00;3.70;;;2.53;;
14776;SDS011;7480;43.124;25.686;2022-09-13T06:47:26;2.40;;;1.70;;
14776;SDS011;7480;43.124;25.686;2022-09-13T06:49:53;1.57;;;1.47;;
14776;SDS011;7480;43.124;25.686;2022-09-13T06:52:19;2.80;;;1.83;;
14776;SDS011;7480;43.124;25.686;2022-09-13T06:54:46;2.47;;;1.73;;
14776;SDS011;7480;43.124;25.686;2022-09-13T06:57:12;2.80;;;1.90;;
14776;SDS011;7480;43.124;25.686;2022-09-13T06:59:39;2.73;;;1.77;;
14776;SDS011;7480;43.124;25.686;2022-09-13T07:02:05;2.07;;;1.80;;
14776;SDS011;7480;43.124;25.686;2022-09-13T07:04:32;1.73;;;1.37;;
14776;SDS011;7480;43.124;25.686;2022-09-13T07:06:58;2.00;;;1.80;;
14776;SDS011;7480;43.124;25.686;2022-09-13T07:09:25;2.17;;;1.70;;
14776;SDS011;7480;43.124;25.686;2022-09-13T07:11:52;1.90;;;1.70;;
14776;SDS011;7480;43.124;25.686;2022-09-13T07:14:20;1.60;;;1.50;;
14776;SDS011;7480;43.124;25.686;2022-09-13T07:16:47;2.03;;;1.83;;
14776;SDS011;7480;43.124;25.686;2022-09-13T07:19:15;1.93;;;1.80;;
14776;SDS011;7480;43.124;25.686;2022-09-13T07:21:42;1.60;;;1.50;;
14776;SDS011;7480;43.124;25.686;2022-09-13T07:24:08;1.93;;;1.57;;
14776;SDS011;7480;43.124;25.686;2022-09-13T07:26:35;2.07;;;1.60;;
14776;SDS011;7480;43.124;25.686;2022-09-13T07:29:03;3.30;;;1.70;;
14776;SDS011;7480;43.124;25.686;2022-09-13T07:31:35;2.17;;;1.77;;
14776;SDS011;7480;43.124;25.686;2022-09-13T07:34:02;3.23;;;1.97;;
14776;SDS011;7480;43.124;25.686;2022-09-13T07:36:30;2.43;;;1.90;;
14776;SDS011;7480;43.124;25.686;2022-09-13T07:38:57;3.60;;;2.03;;
14776;SDS011;7480;43.124;25.686;2022-09-13T07:41:25;1.70;;;1.50;;
14776;SDS011;7480;43.124;25.686;2022-09-13T07:43:52;2.50;;;2.00;;
14776;SDS011;7480;43.124;25.686;2022-09-13T07:46:19;1.97;;;1.53;;
14776;SDS011;7480;43.124;25.686;2022-09-13T07:48:47;1.70;;;1.60;;
14776;SDS011;7480;43.124;25.686;2022-09-13T07:51:15;2.00;;;1.70;;
14776;SDS011;7480;43.124;25.686;2022-09-13T07:53:42;2.43;;;1.67;;
14776;SDS011;7480;43.124;25.686;2022-09-13T07:56:13;2.33;;;1.60;;
14776;SDS011;7480;43.124;25.686;2022-09-13T07:58:41;1.47;;;1.37;;
14776;SDS011;7480;43.124;25.686;2022-09-13T08:01:24;3.17;;;1.43;;
14776;SDS011;7480;43.124;25.686;2022-09-13T08:03:52;3.97;;;1.60;;
14776;SDS011;7480;43.124;25.686;2022-09-13T08:06:18;1.40;;;1.27;;
14776;SDS011;7480;43.124;25.686;2022-09-13T08:08:45;1.73;;;1.63;;
14776;SDS011;7480;43.124;25.686;2022-09-13T08:11:16;1.73;;;1.47;;
14776;SDS011;7480;43.124;25.686;2022-09-13T08:13:46;1.70;;;1.10;;
14776;SDS011;7480;43.124;25.686;2022-09-13T08:16:13;1.53;;;1.33;;
14776;SDS011;7480;43.124;25.686;2022-09-13T08:18:43;1.60;;;1.50;;
14776;SDS011;7480;43.124;25.686;2022-09-13T08:21:11;2.30;;;1.70;;
14776;SDS011;7480;43.124;25.686;2022-09-13T08:23:38;1.60;;;1.50;;
14776;SDS011;7480;43.124;25.686;2022-09-13T08:26:04;1.57;;;1.40;;
14776;SDS011;7480;43.124;25.686;2022-09-13T08:28:37;2.00;;;1.50;;
14776;SDS011;7480;43.124;25.686;2022-09-13T08:31:11;1.83;;;1.50;;
14776;SDS011;7480;43.124;25.686;2022-09-13T08:33:41;2.07;;;1.60;;
14776;SDS011;7480;43.124;25.686;2022-09-13T08:36:11;1.73;;;1.43;;
14776;SDS011;7480;43.124;25.686;2022-09-13T08:38:38;3.07;;;1.70;;
14776;SDS011;7480;43.124;25.686;2022-09-13T08:41:17;1.77;;;1.47;;
14776;SDS011;7480;43.124;25.686;2022-09-13T08:48:51;1.43;;;1.30;;
14776;SDS011;7480;43.124;25.686;2022-09-13T08:54:07;1.47;;;1.27;;
14776;SDS011;7480;43.124;25.686;2022-09-13T09:01:53;3.33;;;1.70;;
14776;SDS011;7480;43.124;25.686;2022-09-13T09:07:01;1.40;;;1.30;;
14776;SDS011;7480;43.124;25.686;2022-09-13T09:09:30;2.30;;;1.37;;
14776;SDS011;7480;43.124;25.686;2022-09-13T09:12:17;1.57;;;1.30;;
14776;SDS011;7480;43.124;25.686;2022-09-13T09:14:52;1.40;;;1.20;;
14776;SDS011;7480;43.124;25.686;2022-09-13T09:17:23;2.80;;;1.20;;
14776;SDS011;7480;43.124;25.686;2022-09-13T09:19:52;1.60;;;1.50;;
14776;SDS011;7480;43.124;25.686;2022-09-13T09:22:20;1.20;;;1.10;;
14776;SDS011;7480;43.124;25.686;2022-09-13T09:24:49;1.40;;;1.30;;
14776;SDS011;7480;43.124;25.686;2022-09-13T09:27:18;1.50;;;1.33;;
14776;SDS011;7480;43.124;25.686;2022-09-13T09:29:48;0.90;;;0.90;;
14776;SDS011;7480;43.124;25.686;2022-09-13T09:37:27;1.67;;;1.33;;
14776;SDS011;7480;43.124;25.686;2022-09-13T09:40:01;1.23;;;1.13;;
14776;SDS011;7480;43.124;25.686;2022-09-13T09:42:31;1.23;;;1.13;;
14776;SDS011;7480;43.124;25.686;2022-09-13T09:45:45;0.97;;;0.93;;
14776;SDS011;7480;43.124;25.686;2022-09-13T09:47:46;8.23;;;1.37;;
14776;SDS011;7480;43.124;25.686;2022-09-13T09:50:19;1.30;;;1.10;;
14776;SDS011;7480;43.124;25.686;2022-09-13T09:52:49;1.43;;;1.20;;
14776;SDS011;7480;43.124;25.686;2022-09-13T09:55:29;2.40;;;0.90;;
14776;SDS011;7480;43.124;25.686;2022-09-13T09:58:00;4.37;;;1.40;;
14776;SDS011;7480;43.124;25.686;2022-09-13T10:00:28;1.43;;;1.20;;
14776;SDS011;7480;43.124;25.686;2022-09-13T10:02:58;1.40;;;1.05;;
14776;SDS011;7480;43.124;25.686;2022-09-13T10:05:26;2.67;;;1.70;;
14776;SDS011;7480;43.124;25.686;2022-09-13T10:07:57;1.57;;;1.30;;
14776;SDS011;7480;43.124;25.686;2022-09-13T10:10:41;1.23;;;1.13;;
14776;SDS011;7480;43.124;25.686;2022-09-13T10:13:15;3.20;;;1.17;;
14776;SDS011;7480;43.124;25.686;2022-09-13T10:15:51;1.70;;;1.33;;
14776;SDS011;7480;43.124;25.686;2022-09-13T10:18:19;2.87;;;1.43;;
14776;SDS011;7480;43.124;25.686;2022-09-13T10:21:19;1.50;;;1.20;;
14776;SDS011;7480;43.124;25.686;2022-09-13T10:23:47;3.23;;;1.27;;
14776;SDS011;7480;43.124;25.686;2022-09-13T10:26:22;1.17;;;1.07;;
14776;SDS011;7480;43.124;25.686;2022-09-13T10:31:16;6.93;;;1.40;;
14776;SDS011;7480;43.124;25.686;2022-09-13T10:33:50;2.30;;;1.40;;
14776;SDS011;7480;43.124;25.686;2022-09-13T10:36:21;1.45;;;1.10;;
14776;SDS011;7480;43.124;25.686;2022-09-13T10:39:13;1.63;;;1.30;;
14776;SDS011;7480;43.124;25.686;2022-09-13T10:41:48;1.50;;;1.27;;
14776;SDS011;7480;43.124;25.686;2022-09-13T10:47:50;1.43;;;1.27;;
14776;SDS011;7480;43.124;25.686;2022-09-13T10:50:09;2.07;;;1.60;;
14776;SDS011;7480;43.124;25.686;2022-09-13T10:52:47;1.30;;;1.20;;
14776;SDS011;7480;43.124;25.686;2022-09-13T10:57:50;1.30;;;1.20;;
14776;SDS011;7480;43.124;25.686;2022-09-13T11:00:19;4.87;;;1.30;;
14776;SDS011;7480;43.124;25.686;2022-09-13T11:02:59;1.30;;;1.10;;
14776;SDS011;7480;43.124;25.686;2022-09-13T11:05:39;1.13;;;1.03;;
14776;SDS011;7480;43.124;25.686;2022-09-13T11:18:20;1.08;;;0.98;;
14776;SDS011;7480;43.124;25.686;2022-09-13T11:33:27;3.88;;;1.08;;
14776;SDS011;7480;43.124;25.686;2022-09-13T11:41:24;1.13;;;1.00;;
14776;SDS011;7480;43.124;25.686;2022-09-13T11:44:04;1.30;;;0.90;;
14776;SDS011;7480;43.124;25.686;2022-09-13T11:49:10;1.30;;;1.10;;
14776;SDS011;7480;43.124;25.686;2022-09-13T11:51:49;1.13;;;1.00;;
14776;SDS011;7480;43.124;25.686;2022-09-13T11:54:29;2.03;;;1.00;;
14776;SDS011;7480;43.124;25.686;2022-09-13T11:57:05;1.40;;;1.30;;
14776;SDS011;7480;43.124;25.686;2022-09-13T12:04:55;1.63;;;1.00;;
14776;SDS011;7480;43.124;25.686;2022-09-13T12:08:03;3.10;;;1.35;;
14776;SDS011;7480;43.124;25.686;2022-09-13T12:13:26;1.43;;;1.00;;
14776;SDS011;7480;43.124;25.686;2022-09-13T12:15:59;1.13;;;1.03;;
14776;SDS011;7480;43.124;25.686;2022-09-13T12:18:49;1.60;;;1.10;;
14776;SDS011;7480;43.124;25.686;2022-09-13T12:21:21;1.30;;;1.20;;
14776;SDS011;7480;43.124;25.686;2022-09-13T12:24:27;1.40;;;1.30;;
14776;SDS011;7480;43.124;25.686;2022-09-13T12:26:55;1.40;;;1.02;;
14776;SDS011;7480;43.124;25.686;2022-09-13T12:31:51;1.38;;;1.13;;
14776;SDS011;7480;43.124;25.686;2022-09-13T12:34:22;1.20;;;1.10;;
14776;SDS011;7480;43.124;25.686;2022-09-13T12:47:15;1.10;;;1.00;;
14776;SDS011;7480;43.124;25.686;2022-09-13T12:55:35;1.20;;;1.10;;
14776;SDS011;7480;43.124;25.686;2022-09-13T13:06:22;1.80;;;1.00;;
14776;SDS011;7480;43.124;25.686;2022-09-13T13:08:50;1.33;;;1.13;;
14776;SDS011;7480;43.124;25.686;2022-09-13T13:11:19;1.27;;;1.00;;
14776;SDS011;7480;43.124;25.686;2022-09-13T13:13:55;1.05;;;0.95;;
14776;SDS011;7480;43.124;25.686;2022-09-13T13:18:52;1.30;;;1.00;;
14776;SDS011;7480;43.124;25.686;2022-09-13T13:21:24;4.18;;;1.23;;
14776;SDS011;7480;43.124;25.686;2022-09-13T13:29:18;2.27;;;1.30;;
14776;SDS011;7480;43.124;25.686;2022-09-13T13:36:57;1.00;;;0.90;;
14776;SDS011;7480;43.124;25.686;2022-09-13T14:21:17;1.25;;;1.13;;
14776;SDS011;7480;43.124;25.686;2022-09-13T14:23:43;5.17;;;1.53;;
14776;SDS011;7480;43.124;25.686;2022-09-13T14:26:10;2.63;;;1.20;;
14776;SDS011;7480;43.124;25.686;2022-09-13T14:28:37;6.53;;;1.40;;
14776;SDS011;7480;43.124;25.686;2022-09-13T14:31:04;1.10;;;1.00;;
14776;SDS011;7480;43.124;25.686;2022-09-13T14:33:31;3.47;;;1.23;;
14776;SDS011;7480;43.124;25.686;2022-09-13T14:36:01;3.13;;;1.43;;
14776;SDS011;7480;43.124;25.686;2022-09-13T14:38:30;1.37;;;1.20;;
14776;SDS011;7480;43.124;25.686;2022-09-13T14:41:02;1.38;;;1.27;;
14776;SDS011;7480;43.124;25.686;2022-09-13T14:43:29;6.10;;;1.67;;
14776;SDS011;7480;43.124;25.686;2022-09-13T14:48:37;4.47;;;1.50;;
14776;SDS011;7480;43.124;25.686;2022-09-13T14:51:27;1.20;;;0.90;;
14776;SDS011;7480;43.124;25.686;2022-09-13T14:53:56;3.73;;;1.10;;
14776;SDS011;7480;43.124;25.686;2022-09-13T14:59:02;1.63;;;1.07;;
14776;SDS011;7480;43.124;25.686;2022-09-13T15:01:32;2.03;;;1.30;;
14776;SDS011;7480;43.124;25.686;2022-09-13T15:04:00;1.50;;;1.10;;
14776;SDS011;7480;43.124;25.686;2022-09-13T15:06:29;2.10;;;1.17;;
14776;SDS011;7480;43.124;25.686;2022-09-13T15:09:00;1.50;;;0.70;;
14776;SDS011;7480;43.124;25.686;2022-09-13T15:11:41;1.43;;;1.20;;
14776;SDS011;7480;43.124;25.686;2022-09-13T15:14:17;1.10;;;1.00;;
14776;SDS011;7480;43.124;25.686;2022-09-13T15:16:50;0.90;;;0.90;;
14776;SDS011;7480;43.124;25.686;2022-09-13T15:21:49;3.33;;;1.20;;
14776;SDS011;7480;43.124;25.686;2022-09-13T15:24:27;2.77;;;1.20;;
14776;SDS011;7480;43.124;25.686;2022-09-13T15:27:05;1.30;;;1.17;;
14776;SDS011;7480;43.124;25.686;2022-09-13T15:29:32;1.20;;;0.93;;
14776;SDS011;7480;43.124;25.686;2022-09-13T15:32:00;2.30;;;0.90;;
14776;SDS011;7480;43.124;25.686;2022-09-13T15:34:27;1.60;;;1.03;;
14776;SDS011;7480;43.124;25.686;2022-09-13T15:39:26;1.33;;;1.23;;
14776;SDS011;7480;43.124;25.686;2022-09-13T15:41:55;6.20;;;1.50;;
14776;SDS011;7480;43.124;25.686;2022-09-13T15:44:22;2.47;;;1.30;;
14776;SDS011;7480;43.124;25.686;2022-09-13T15:46:50;1.70;;;1.20;;
14776;SDS011;7480;43.124;25.686;2022-09-13T15:49:20;2.10;;;1.17;;
14776;SDS011;7480;43.124;25.686;2022-09-13T15:51:57;2.23;;;1.30;;
14776;SDS011;7480;43.124;25.686;2022-09-13T15:54:32;2.67;;;1.37;;
14776;SDS011;7480;43.124;25.686;2022-09-13T15:56:58;1.73;;;1.30;;
14776;SDS011;7480;43.124;25.686;2022-09-13T15:59:25;1.27;;;1.10;;
14776;SDS011;7480;43.124;25.686;2022-09-13T16:01:52;3.50;;;1.43;;
14776;SDS011;7480;43.124;25.686;2022-09-13T16:04:18;1.58;;;1.30;;
14776;SDS011;7480;43.124;25.686;2022-09-13T16:06:45;4.17;;;1.47;;
14776;SDS011;7480;43.124;25.686;2022-09-13T16:09:22;1.73;;;1.20;;
14776;SDS011;7480;43.124;25.686;2022-09-13T16:11:49;1.27;;;1.17;;
14776;SDS011;7480;43.124;25.686;2022-09-13T16:14:16;3.83;;;1.67;;
14776;SDS011;7480;43.124;25.686;2022-09-13T16:16:43;1.70;;;1.40;;
14776;SDS011;7480;43.124;25.686;2022-09-13T16:19:13;1.27;;;1.17;;
14776;SDS011;7480;43.124;25.686;2022-09-13T16:21:40;1.80;;;1.50;;
14776;SDS011;7480;43.124;25.686;2022-09-13T16:24:06;2.17;;;1.40;;
14776;SDS011;7480;43.124;25.686;2022-09-13T16:26:33;1.87;;;1.10;;
14776;SDS011;7480;43.124;25.686;2022-09-13T16:29:00;1.43;;;1.30;;
14776;SDS011;7480;43.124;25.686;2022-09-13T16:31:26;2.60;;;1.60;;
14776;SDS011;7480;43.124;25.686;2022-09-13T16:33:53;1.77;;;1.40;;
14776;SDS011;7480;43.124;25.686;2022-09-13T16:36:19;1.90;;;1.20;;
14776;SDS011;7480;43.124;25.686;2022-09-13T16:38:46;4.53;;;1.20;;
14776;SDS011;7480;43.124;25.686;2022-09-13T16:41:12;2.43;;;1.37;;
14776;SDS011;7480;43.124;25.686;2022-09-13T16:43:39;2.23;;;1.70;;
14776;SDS011;7480;43.124;25.686;2022-09-13T16:46:07;3.50;;;2.10;;
14776;SDS011;7480;43.124;25.686;2022-09-13T16:48:34;1.93;;;1.80;;
14776;SDS011;7480;43.124;25.686;2022-09-13T16:51:04;4.50;;;1.77;;
14776;SDS011;7480;43.124;25.686;2022-09-13T16:53:31;2.13;;;1.63;;
14776;SDS011;7480;43.124;25.686;2022-09-13T16:56:09;2.53;;;1.67;;
14776;SDS011;7480;43.124;25.686;2022-09-13T16:58:39;2.43;;;1.80;;
14776;SDS011;7480;43.124;25.686;2022-09-13T17:01:07;2.77;;;2.20;;
14776;SDS011;7480;43.124;25.686;2022-09-13T17:03:33;1.20;;;1.10;;
14776;SDS011;7480;43.124;25.686;2022-09-13T17:06:11;3.20;;;2.20;;
14776;SDS011;7480;43.124;25.686;2022-09-13T17:08:39;3.50;;;1.60;;
14776;SDS011;7480;43.124;25.686;2022-09-13T17:11:07;1.87;;;1.40;;
14776;SDS011;7480;43.124;25.686;2022-09-13T17:13:35;1.80;;;1.40;;
14776;SDS011;7480;43.124;25.686;2022-09-13T17:16:02;4.40;;;1.93;;
14776;SDS011;7480;43.124;25.686;2022-09-13T17:18:29;2.10;;;1.60;;
14776;SDS011;7480;43.124;25.686;2022-09-13T17:20:55;2.60;;;1.50;;
14776;SDS011;7480;43.124;25.686;2022-09-13T17:23:23;1.19;;;1.09;;
14776;SDS011;7480;43.124;25.686;2022-09-13T17:25:50;4.27;;;1.57;;
14776;SDS011;7480;43.124;25.686;2022-09-13T17:28:18;1.40;;;1.30;;
14776;SDS011;7480;43.124;25.686;2022-09-13T17:30:45;1.97;;;1.50;;
14776;SDS011;7480;43.124;25.686;2022-09-13T17:33:12;2.10;;;1.30;;
14776;SDS011;7480;43.124;25.686;2022-09-13T17:35:38;1.07;;;1.07;;
14776;SDS011;7480;43.124;25.686;2022-09-13T17:38:05;1.53;;;1.43;;
14776;SDS011;7480;43.124;25.686;2022-09-13T17:40:31;2.10;;;1.60;;
14776;SDS011;7480;43.124;25.686;2022-09-13T17:42:58;1.30;;;1.20;;
14776;SDS011;7480;43.124;25.686;2022-09-13T17:45:24;3.40;;;2.73;;
14776;SDS011;7480;43.124;25.686;2022-09-13T17:47:51;1.83;;;1.43;;
14776;SDS011;7480;43.124;25.686;2022-09-13T17:50:18;1.37;;;0.90;;
14776;SDS011;7480;43.124;25.686;2022-09-13T17:52:45;1.50;;;1.40;;
14776;SDS011;7480;43.124;25.686;2022-09-13T17:55:12;5.33;;;1.60;;
14776;SDS011;7480;43.124;25.686;2022-09-13T17:57:38;1.50;;;1.40;;
14776;SDS011;7480;43.124;25.686;2022-09-13T18:00:06;1.77;;;1.47;;
14776;SDS011;7480;43.124;25.686;2022-09-13T18:02:38;5.20;;;1.57;;
14776;SDS011;7480;43.124;25.686;2022-09-13T18:05:05;1.53;;;1.40;;
14776;SDS011;7480;43.124;25.686;2022-09-13T18:07:38;4.73;;;1.63;;
14776;SDS011;7480;43.124;25.686;2022-09-13T18:10:04;1.97;;;1.30;;
14776;SDS011;7480;43.124;25.686;2022-09-13T18:12:50;3.00;;;1.60;;
14776;SDS011;7480;43.124;25.686;2022-09-13T18:15:17;1.27;;;1.17;;
14776;SDS011;7480;43.124;25.686;2022-09-13T18:17:43;1.33;;;1.17;;
14776;SDS011;7480;43.124;25.686;2022-09-13T18:20:10;1.43;;;1.07;;
14776;SDS011;7480;43.124;25.686;2022-09-13T18:22:36;2.20;;;1.43;;
14776;SDS011;7480;43.124;25.686;2022-09-13T18:25:03;2.20;;;1.30;;
14776;SDS011;7480;43.124;25.686;2022-09-13T18:27:29;5.93;;;1.60;;
14776;SDS011;7480;43.124;25.686;2022-09-13T18:29:56;4.67;;;1.50;;
14776;SDS011;7480;43.124;25.686;2022-09-13T18:32:22;1.50;;;1.13;;
14776;SDS011;7480;43.124;25.686;2022-09-13T18:34:49;1.73;;;1.27;;
14776;SDS011;7480;43.124;25.686;2022-09-13T18:37:15;1.30;;;1.20;;
14776;SDS011;7480;43.124;25.686;2022-09-13T18:39:41;2.20;;;1.80;;